sensor_id;sensor_type;location;lat;lon;timestamp;temperature;humidity
9437;DHT22;4757;59.334;18.034;2024-03-23T00:52:55;4.20;99.90
9437;DHT22;4757;59.334;18.034;2024-03-23T00:55:21;4.10;99.90
9437;DHT22;4757;59.334;18.034;2024-03-23T00:57:48;4.20;99.90
9437;DHT22;4757;59.334;18.034;2024-03-23T01:00:16;4.10;99.90
9437;DHT22;4757;59.334;18.034;2024-03-23T01:02:43;4.10;99.90
9437;DHT22;4757;59.334;18.034;2024-03-23T01:05:09;4.10;99.90
9437;DHT22;4757;59.334;18.034;2024-03-23T01:07:36;4.10;99.90
9437;DHT22;4757;59.334;18.034;2024-03-23T01:10:02;4.00;99.90
9437;DHT22;4757;59.334;18.034;2024-03-23T01:12:29;4.00;99.90
9437;DHT22;4757;59.334;18.034;2024-03-23T01:14:55;4.00;99.90
9437;DHT22;4757;59.334;18.034;2024-03-23T01:17:22;3.90;99.90
9437;DHT22;4757;59.334;18.034;2024-03-23T01:19:48;3.90;99.90
9437;DHT22;4757;59.334;18.034;2024-03-23T01:22:15;3.90;99.90
9437;DHT22;4757;59.334;18.034;2024-03-23T01:24:42;4.00;99.90
9437;DHT22;4757;59.334;18.034;2024-03-23T01:27:08;3.90;99.90
9437;DHT22;4757;59.334;18.034;2024-03-23T01:29:35;3.90;99.90
9437;DHT22;4757;59.334;18.034;2024-03-23T01:32:01;3.80;99.90
9437;DHT22;4757;59.334;18.034;2024-03-23T01:34:28;3.80;99.90
9437;DHT22;4757;59.334;18.034;2024-03-23T01:36:54;3.80;99.90
9437;DHT22;4757;59.334;18.034;2024-03-23T01:39:21;3.80;99.90
9437;DHT22;4757;59.334;18.034;2024-03-23T01:41:48;3.70;99.90
9437;DHT22;4757;59.334;18.034;2024-03-23T01:44:14;3.70;99.90
9437;DHT22;4757;59.334;18.034;2024-03-23T01:46:41;3.70;99.90
9437;DHT22;4757;59.334;18.034;2024-03-23T01:49:08;3.70;99.90
9437;DHT22;4757;59.334;18.034;2024-03-23T01:51:36;3.60;99.90
9437;DHT22;4757;59.334;18.034;2024-03-23T01:54:04;3.70;99.90
9437;DHT22;4757;59.334;18.034;2024-03-23T01:56:34;3.60;99.90
9437;DHT22;4757;59.334;18.034;2024-03-23T01:59:05;3.60;99.90
9437;DHT22;4757;59.334;18.034;2024-03-23T02:01:32;3.60;99.90
9437;DHT22;4757;59.334;18.034;2024-03-23T02:03:59;3.60;99.90
9437;DHT22;4757;59.334;18.034;2024-03-23T02:06:26;3.60;99.90
9437;DHT22;4757;59.334;18.034;2024-03-23T02:08:54;3.60;99.90
9437;DHT22;4757;59.334;18.034;2024-03-23T02:11:20;3.60;99.90
9437;DHT22;4757;59.334;18.034;2024-03-23T02:13:47;3.60;99.90
9437;DHT22;4757;59.334;18.034;2024-03-23T02:16:13;3.50;99.90
9437;DHT22;4757;59.334;18.034;2024-03-23T02:18:40;3.50;99.90
9437;DHT22;4757;59.334;18.034;2024-03-23T02:21:07;3.50;99.90
9437;DHT22;4757;59.334;18.034;2024-03-23T02:23:33;3.50;99.90
9437;DHT22;4757;59.334;18.034;2024-03-23T02:25:59;3.50;99.90
9437;DHT22;4757;59.334;18.034;2024-03-23T02:28:26;3.50;99.90
9437;DHT22;4757;59.334;18.034;2024-03-23T02:30:52;3.50;99.90
9437;DHT22;4757;59.334;18.034;2024-03-23T02:33:19;3.40;99.90
9437;DHT22;4757;59.334;18.034;2024-03-23T02:35:47;3.40;99.90
9437;DHT22;4757;59.334;18.034;2024-03-23T02:38:13;3.40;99.90
9437;DHT22;4757;59.334;18.034;2024-03-23T02:40:40;3.40;99.90
9437;DHT22;4757;59.334;18.034;2024-03-23T02:43:06;3.40;99.90
9437;DHT22;4757;59.334;18.034;2024-03-23T02:45:33;3.40;99.90
9437;DHT22;4757;59.334;18.034;2024-03-23T02:47:59;3.40;99.90
9437;DHT22;4757;59.334;18.034;2024-03-23T02:50:26;3.30;99.90
9437;DHT22;4757;59.334;18.034;2024-03-23T02:52:52;3.30;99.90
9437;DHT22;4757;59.334;18.034;2024-03-23T02:55:19;3.30;99.90
9437;DHT22;4757;59.334;18.034;2024-03-23T02:57:46;3.30;99.90
9437;DHT22;4757;59.334;18.034;2024-03-23T03:00:12;3.30;99.90
9437;DHT22;4757;59.334;18.034;2024-03-23T03:02:39;3.20;99.90
9437;DHT22;4757;59.334;18.034;2024-03-23T03:05:06;3.20;99.90
9437;DHT22;4757;59.334;18.034;2024-03-23T03:07:32;3.20;99.90
9437;DHT22;4757;59.334;18.034;2024-03-23T03:09:59;3.20;99.90
9437;DHT22;4757;59.334;18.034;2024-03-23T03:12:25;3.10;99.90
9437;DHT22;4757;59.334;18.034;2024-03-23T03:14:52;3.10;99.90
9437;DHT22;4757;59.334;18.034;2024-03-23T03:17:18;3.10;99.90
9437;DHT22;4757;59.334;18.034;2024-03-23T03:19:45;3.10;99.90
9437;DHT22;4757;59.334;18.034;2024-03-23T03:22:11;3.10;99.90
9437;DHT22;4757;59.334;18.034;2024-03-23T03:24:38;3.10;99.90
9437;DHT22;4757;59.334;18.034;2024-03-23T03:27:04;3.10;99.90
9437;DHT22;4757;59.334;18.034;2024-03-23T03:29:33;3.10;99.90
9437;DHT22;4757;59.334;18.034;2024-03-23T03:32:02;3.00;99.90
9437;DHT22;4757;59.334;18.034;2024-03-23T03:34:29;3.00;99.90
9437;DHT22;4757;59.334;18.034;2024-03-23T03:36:57;3.00;99.90
9437;DHT22;4757;59.334;18.034;2024-03-23T03:39:24;3.00;99.90
9437;DHT22;4757;59.334;18.034;2024-03-23T03:41:50;3.00;99.90
9437;DHT22;4757;59.334;18.034;2024-03-23T03:44:17;2.90;99.90
9437;DHT22;4757;59.334;18.034;2024-03-23T03:46:44;2.90;99.90
9437;DHT22;4757;59.334;18.034;2024-03-23T03:49:10;2.90;99.90
9437;DHT22;4757;59.334;18.034;2024-03-23T03:51:37;2.90;99.90
9437;DHT22;4757;59.334;18.034;2024-03-23T03:54:03;2.90;99.90
9437;DHT22;4757;59.334;18.034;2024-03-23T03:56:30;2.90;99.90
9437;DHT22;4757;59.334;18.034;2024-03-23T03:58:56;2.80;99.90
9437;DHT22;4757;59.334;18.034;2024-03-23T04:01:22;2.80;99.90
9437;DHT22;4757;59.334;18.034;2024-03-23T04:03:49;2.80;99.90
9437;DHT22;4757;59.334;18.034;2024-03-23T04:06:19;2.80;99.90
9437;DHT22;4757;59.334;18.034;2024-03-23T04:08:46;2.80;99.90
9437;DHT22;4757;59.334;18.034;2024-03-23T04:11:12;2.80;99.90
9437;DHT22;4757;59.334;18.034;2024-03-23T04:13:39;2.80;99.90
9437;DHT22;4757;59.334;18.034;2024-03-23T04:16:07;2.80;99.90
9437;DHT22;4757;59.334;18.034;2024-03-23T04:18:35;2.80;99.90
9437;DHT22;4757;59.334;18.034;2024-03-23T04:21:02;2.80;99.90
9437;DHT22;4757;59.334;18.034;2024-03-23T04:23:29;2.70;99.90
9437;DHT22;4757;59.334;18.034;2024-03-23T04:25:55;2.70;99.90
9437;DHT22;4757;59.334;18.034;2024-03-23T04:28:21;2.70;99.90
9437;DHT22;4757;59.334;18.034;2024-03-23T04:30:48;2.70;99.90
9437;DHT22;4757;59.334;18.034;2024-03-23T04:33:15;2.70;99.90
9437;DHT22;4757;59.334;18.034;2024-03-23T04:35:41;2.70;99.90
9437;DHT22;4757;59.334;18.034;2024-03-23T04:38:08;2.60;99.90
9437;DHT22;4757;59.334;18.034;2024-03-23T04:40:34;2.60;99.90
9437;DHT22;4757;59.334;18.034;2024-03-23T04:43:01;2.70;99.90
9437;DHT22;4757;59.334;18.034;2024-03-23T04:45:27;2.70;99.90
9437;DHT22;4757;59.334;18.034;2024-03-23T04:47:54;2.60;99.90
9437;DHT22;4757;59.334;18.034;2024-03-23T04:50:20;2.60;99.90
9437;DHT22;4757;59.334;18.034;2024-03-23T04:52:47;2.60;99.90
9437;DHT22;4757;59.334;18.034;2024-03-23T04:55:13;2.60;99.90
9437;DHT22;4757;59.334;18.034;2024-03-23T04:57:40;2.60;99.90
9437;DHT22;4757;59.334;18.034;2024-03-23T05:00:07;2.60;99.90
9437;DHT22;4757;59.334;18.034;2024-03-23T05:02:44;2.60;99.90
9437;DHT22;4757;59.334;18.034;2024-03-23T05:05:11;2.60;99.90
9437;DHT22;4757;59.334;18.034;2024-03-23T05:07:38;2.50;99.90
9437;DHT22;4757;59.334;18.034;2024-03-23T05:10:05;2.60;99.90
9437;DHT22;4757;59.334;18.034;2024-03-23T05:12:31;2.60;99.90
9437;DHT22;4757;59.334;18.034;2024-03-23T05:14:58;2.60;99.90
9437;DHT22;4757;59.334;18.034;2024-03-23T05:17:24;2.50;99.90
9437;DHT22;4757;59.334;18.034;2024-03-23T05:19:51;2.60;99.90
9437;DHT22;4757;59.334;18.034;2024-03-23T05:22:17;2.60;99.90
9437;DHT22;4757;59.334;18.034;2024-03-23T05:24:45;2.60;99.90
9437;DHT22;4757;59.334;18.034;2024-03-23T05:27:12;2.60;99.90
9437;DHT22;4757;59.334;18.034;2024-03-23T05:29:39;2.60;99.90
9437;DHT22;4757;59.334;18.034;2024-03-23T05:32:05;2.60;99.90
9437;DHT22;4757;59.334;18.034;2024-03-23T05:34:33;2.70;99.90
9437;DHT22;4757;59.334;18.034;2024-03-23T05:37:00;2.70;99.90
9437;DHT22;4757;59.334;18.034;2024-03-23T05:39:26;2.70;99.90
9437;DHT22;4757;59.334;18.034;2024-03-23T05:41:52;2.70;99.90
9437;DHT22;4757;59.334;18.034;2024-03-23T05:44:19;2.70;99.90
9437;DHT22;4757;59.334;18.034;2024-03-23T05:46:45;2.80;99.90
9437;DHT22;4757;59.334;18.034;2024-03-23T05:49:16;2.80;99.90
9437;DHT22;4757;59.334;18.034;2024-03-23T05:51:43;2.80;99.90
9437;DHT22;4757;59.334;18.034;2024-03-23T05:54:10;2.90;99.90
9437;DHT22;4757;59.334;18.034;2024-03-23T05:56:37;2.90;99.90
9437;DHT22;4757;59.334;18.034;2024-03-23T05:59:03;2.90;99.90
9437;DHT22;4757;59.334;18.034;2024-03-23T06:01:29;3.00;99.90
9437;DHT22;4757;59.334;18.034;2024-03-23T06:03:58;3.00;99.90
9437;DHT22;4757;59.334;18.034;2024-03-23T06:06:27;3.00;99.90
9437;DHT22;4757;59.334;18.034;2024-03-23T06:08:56;3.10;99.90
9437;DHT22;4757;59.334;18.034;2024-03-23T06:11:23;3.40;99.90
9437;DHT22;4757;59.334;18.034;2024-03-23T06:13:49;3.90;99.90
9437;DHT22;4757;59.334;18.034;2024-03-23T06:16:16;4.20;99.90
9437;DHT22;4757;59.334;18.034;2024-03-23T06:18:42;4.60;99.90
9437;DHT22;4757;59.334;18.034;2024-03-23T06:21:13;4.60;99.90
9437;DHT22;4757;59.334;18.034;2024-03-23T06:23:41;4.60;99.90
9437;DHT22;4757;59.334;18.034;2024-03-23T06:26:08;4.70;99.90
9437;DHT22;4757;59.334;18.034;2024-03-23T06:28:34;4.70;99.90
9437;DHT22;4757;59.334;18.034;2024-03-23T06:31:02;5.20;99.90
9437;DHT22;4757;59.334;18.034;2024-03-23T06:33:28;5.70;99.90
9437;DHT22;4757;59.334;18.034;2024-03-23T06:35:55;5.80;99.90
9437;DHT22;4757;59.334;18.034;2024-03-23T06:38:21;5.70;99.90
9437;DHT22;4757;59.334;18.034;2024-03-23T06:40:48;5.50;99.90
9437;DHT22;4757;59.334;18.034;2024-03-23T06:43:16;5.70;99.90
9437;DHT22;4757;59.334;18.034;2024-03-23T06:45:44;5.60;99.90
9437;DHT22;4757;59.334;18.034;2024-03-23T06:48:18;5.40;99.90
9437;DHT22;4757;59.334;18.034;2024-03-23T06:50:55;5.70;99.90
9437;DHT22;4757;59.334;18.034;2024-03-23T06:53:21;5.80;99.90
9437;DHT22;4757;59.334;18.034;2024-03-23T06:55:54;5.80;99.90
9437;DHT22;4757;59.334;18.034;2024-03-23T06:58:25;5.20;99.90
9437;DHT22;4757;59.334;18.034;2024-03-23T07:00:51;5.20;99.90
9437;DHT22;4757;59.334;18.034;2024-03-23T07:03:20;5.20;99.90
9437;DHT22;4757;59.334;18.034;2024-03-23T07:05:48;4.80;99.90
9437;DHT22;4757;59.334;18.034;2024-03-23T07:08:14;4.80;99.90
9437;DHT22;4757;59.334;18.034;2024-03-23T07:10:47;4.80;99.90
9437;DHT22;4757;59.334;18.034;2024-03-23T07:13:13;4.90;99.90
9437;DHT22;4757;59.334;18.034;2024-03-23T07:15:40;4.90;99.90
9437;DHT22;4757;59.334;18.034;2024-03-23T07:18:06;4.70;99.90
9437;DHT22;4757;59.334;18.034;2024-03-23T07:20:33;4.60;99.90
9437;DHT22;4757;59.334;18.034;2024-03-23T07:23:00;4.70;99.90
9437;DHT22;4757;59.334;18.034;2024-03-23T07:25:29;4.70;99.90
9437;DHT22;4757;59.334;18.034;2024-03-23T07:27:56;4.80;99.90
9437;DHT22;4757;59.334;18.034;2024-03-23T07:30:22;4.70;99.90
9437;DHT22;4757;59.334;18.034;2024-03-23T07:32:49;4.70;99.90
9437;DHT22;4757;59.334;18.034;2024-03-23T07:35:16;4.80;99.90
9437;DHT22;4757;59.334;18.034;2024-03-23T07:37:43;4.80;99.90
9437;DHT22;4757;59.334;18.034;2024-03-23T07:40:09;4.80;99.90
9437;DHT22;4757;59.334;18.034;2024-03-23T07:42:39;4.80;99.90
9437;DHT22;4757;59.334;18.034;2024-03-23T07:45:09;4.70;99.90
9437;DHT22;4757;59.334;18.034;2024-03-23T07:47:37;4.80;99.90
9437;DHT22;4757;59.334;18.034;2024-03-23T07:50:04;4.80;99.90
9437;DHT22;4757;59.334;18.034;2024-03-23T07:52:31;5.00;99.90
9437;DHT22;4757;59.334;18.034;2024-03-23T07:55:00;5.20;99.90
9437;DHT22;4757;59.334;18.034;2024-03-23T07:57:26;5.10;99.90
9437;DHT22;4757;59.334;18.034;2024-03-23T07:59:54;5.20;99.90
9437;DHT22;4757;59.334;18.034;2024-03-23T08:02:21;5.10;99.90
9437;DHT22;4757;59.334;18.034;2024-03-23T08:04:47;5.20;99.90
9437;DHT22;4757;59.334;18.034;2024-03-23T08:07:14;5.20;99.90
9437;DHT22;4757;59.334;18.034;2024-03-23T08:09:44;5.30;99.90
9437;DHT22;4757;59.334;18.034;2024-03-23T08:12:13;5.20;99.90
9437;DHT22;4757;59.334;18.034;2024-03-23T08:14:39;5.40;99.90
9437;DHT22;4757;59.334;18.034;2024-03-23T08:17:09;5.40;99.90
9437;DHT22;4757;59.334;18.034;2024-03-23T08:19:36;5.40;99.90
9437;DHT22;4757;59.334;18.034;2024-03-23T08:22:03;5.40;99.90
9437;DHT22;4757;59.334;18.034;2024-03-23T08:24:30;5.40;99.90
9437;DHT22;4757;59.334;18.034;2024-03-23T08:26:57;5.40;99.90
9437;DHT22;4757;59.334;18.034;2024-03-23T08:29:23;5.40;99.90
9437;DHT22;4757;59.334;18.034;2024-03-23T08:31:50;5.40;99.90
9437;DHT22;4757;59.334;18.034;2024-03-23T08:34:19;5.50;99.90
9437;DHT22;4757;59.334;18.034;2024-03-23T08:36:45;5.50;99.90
9437;DHT22;4757;59.334;18.034;2024-03-23T08:39:12;5.50;99.90
9437;DHT22;4757;59.334;18.034;2024-03-23T08:41:43;5.60;99.90
9437;DHT22;4757;59.334;18.034;2024-03-23T08:44:13;5.70;99.90
9437;DHT22;4757;59.334;18.034;2024-03-23T08:46:40;5.80;99.90
9437;DHT22;4757;59.334;18.034;2024-03-23T08:49:06;5.70;99.90
9437;DHT22;4757;59.334;18.034;2024-03-23T08:51:35;5.70;99.90
9437;DHT22;4757;59.334;18.034;2024-03-23T08:54:02;5.70;99.90
9437;DHT22;4757;59.334;18.034;2024-03-23T08:56:29;5.80;99.90
9437;DHT22;4757;59.334;18.034;2024-03-23T08:58:55;5.80;99.90
9437;DHT22;4757;59.334;18.034;2024-03-23T09:01:23;5.80;99.90
9437;DHT22;4757;59.334;18.034;2024-03-23T09:03:50;5.80;99.90
9437;DHT22;4757;59.334;18.034;2024-03-23T09:06:16;5.90;99.90
9437;DHT22;4757;59.334;18.034;2024-03-23T09:08:43;5.90;99.90
9437;DHT22;4757;59.334;18.034;2024-03-23T09:11:13;5.90;99.90
9437;DHT22;4757;59.334;18.034;2024-03-23T09:13:40;6.00;99.90
9437;DHT22;4757;59.334;18.034;2024-03-23T09:16:07;6.00;99.90
9437;DHT22;4757;59.334;18.034;2024-03-23T09:18:36;6.00;99.90
9437;DHT22;4757;59.334;18.034;2024-03-23T09:21:04;6.10;99.90
9437;DHT22;4757;59.334;18.034;2024-03-23T09:23:37;6.30;99.90
9437;DHT22;4757;59.334;18.034;2024-03-23T09:26:03;6.40;99.90
9437;DHT22;4757;59.334;18.034;2024-03-23T09:28:30;6.30;99.90
9437;DHT22;4757;59.334;18.034;2024-03-23T09:31:06;6.40;99.90
9437;DHT22;4757;59.334;18.034;2024-03-23T09:33:41;6.40;99.90
9437;DHT22;4757;59.334;18.034;2024-03-23T09:36:08;6.60;99.90
9437;DHT22;4757;59.334;18.034;2024-03-23T09:38:34;6.70;99.90
9437;DHT22;4757;59.334;18.034;2024-03-23T09:41:07;6.60;99.90
9437;DHT22;4757;59.334;18.034;2024-03-23T09:43:34;6.50;99.90
9437;DHT22;4757;59.334;18.034;2024-03-23T09:46:04;6.40;99.90
9437;DHT22;4757;59.334;18.034;2024-03-23T09:48:32;6.60;99.90
9437;DHT22;4757;59.334;18.034;2024-03-23T09:50:59;6.70;99.90
9437;DHT22;4757;59.334;18.034;2024-03-23T09:53:26;6.80;99.90
9437;DHT22;4757;59.334;18.034;2024-03-23T09:55:56;6.70;99.90
9437;DHT22;4757;59.334;18.034;2024-03-23T09:58:23;6.90;99.90
9437;DHT22;4757;59.334;18.034;2024-03-23T10:00:50;7.00;99.90
9437;DHT22;4757;59.334;18.034;2024-03-23T10:03:17;7.10;99.90
9437;DHT22;4757;59.334;18.034;2024-03-23T10:05:43;6.80;99.90
9437;DHT22;4757;59.334;18.034;2024-03-23T10:10:45;6.90;99.90
9437;DHT22;4757;59.334;18.034;2024-03-23T10:13:25;6.90;99.90
9437;DHT22;4757;59.334;18.034;2024-03-23T10:15:59;7.00;99.90
9437;DHT22;4757;59.334;18.034;2024-03-23T10:18:26;6.90;99.90
9437;DHT22;4757;59.334;18.034;2024-03-23T10:21:09;7.50;99.90
9437;DHT22;4757;59.334;18.034;2024-03-23T10:23:40;7.30;99.90
9437;DHT22;4757;59.334;18.034;2024-03-23T10:26:24;7.30;99.90
9437;DHT22;4757;59.334;18.034;2024-03-23T10:28:59;7.50;99.90
9437;DHT22;4757;59.334;18.034;2024-03-23T10:31:34;7.30;99.90
9437;DHT22;4757;59.334;18.034;2024-03-23T10:34:04;7.40;99.90
9437;DHT22;4757;59.334;18.034;2024-03-23T10:36:31;7.10;99.90
9437;DHT22;4757;59.334;18.034;2024-03-23T10:38:59;7.30;99.90
9437;DHT22;4757;59.334;18.034;2024-03-23T10:41:28;7.50;99.90
9437;DHT22;4757;59.334;18.034;2024-03-23T10:43:56;7.60;99.90
9437;DHT22;4757;59.334;18.034;2024-03-23T10:46:24;7.60;99.90
9437;DHT22;4757;59.334;18.034;2024-03-23T10:48:51;7.70;99.90
9437;DHT22;4757;59.334;18.034;2024-03-23T10:51:17;7.60;99.90
9437;DHT22;4757;59.334;18.034;2024-03-23T10:53:45;7.70;99.90
9437;DHT22;4757;59.334;18.034;2024-03-23T10:56:13;7.60;99.90
9437;DHT22;4757;59.334;18.034;2024-03-23T10:58:44;7.80;99.90
9437;DHT22;4757;59.334;18.034;2024-03-23T11:01:13;7.90;99.90
9437;DHT22;4757;59.334;18.034;2024-03-23T11:03:45;7.90;99.90
9437;DHT22;4757;59.334;18.034;2024-03-23T11:09:03;7.90;99.90
9437;DHT22;4757;59.334;18.034;2024-03-23T11:11:30;7.90;99.90
9437;DHT22;4757;59.334;18.034;2024-03-23T11:14:00;8.10;99.90
9437;DHT22;4757;59.334;18.034;2024-03-23T11:16:29;8.00;99.90
9437;DHT22;4757;59.334;18.034;2024-03-23T11:22:03;8.20;99.90
9437;DHT22;4757;59.334;18.034;2024-03-23T11:24:31;8.20;99.90
9437;DHT22;4757;59.334;18.034;2024-03-23T11:26:59;8.10;99.90
9437;DHT22;4757;59.334;18.034;2024-03-23T11:29:28;8.20;99.90
9437;DHT22;4757;59.334;18.034;2024-03-23T11:31:56;8.20;99.90
9437;DHT22;4757;59.334;18.034;2024-03-23T11:34:22;8.20;99.90
9437;DHT22;4757;59.334;18.034;2024-03-23T11:36:49;8.30;99.90
9437;DHT22;4757;59.334;18.034;2024-03-23T11:39:18;8.20;99.90
9437;DHT22;4757;59.334;18.034;2024-03-23T11:41:50;8.30;99.90
9437;DHT22;4757;59.334;18.034;2024-03-23T11:44:25;8.40;99.90
9437;DHT22;4757;59.334;18.034;2024-03-23T11:46:52;8.50;99.90
9437;DHT22;4757;59.334;18.034;2024-03-23T11:49:29;8.50;99.90
9437;DHT22;4757;59.334;18.034;2024-03-23T11:51:57;8.60;99.90
9437;DHT22;4757;59.334;18.034;2024-03-23T11:54:25;8.60;99.90
9437;DHT22;4757;59.334;18.034;2024-03-23T12:02:12;8.40;99.90
9437;DHT22;4757;59.334;18.034;2024-03-23T12:04:41;8.40;99.90
9437;DHT22;4757;59.334;18.034;2024-03-23T12:07:19;8.40;99.90
9437;DHT22;4757;59.334;18.034;2024-03-23T12:09:49;8.40;99.90
9437;DHT22;4757;59.334;18.034;2024-03-23T12:12:28;8.50;99.90
9437;DHT22;4757;59.334;18.034;2024-03-23T12:15:02;8.30;99.90
9437;DHT22;4757;59.334;18.034;2024-03-23T12:17:30;8.50;99.90
9437;DHT22;4757;59.334;18.034;2024-03-23T12:19:56;8.70;99.90
9437;DHT22;4757;59.334;18.034;2024-03-23T12:22:24;8.80;99.90
9437;DHT22;4757;59.334;18.034;2024-03-23T12:24:51;8.80;99.90
9437;DHT22;4757;59.334;18.034;2024-03-23T12:27:17;8.60;99.90
9437;DHT22;4757;59.334;18.034;2024-03-23T12:29:44;8.40;99.90
9437;DHT22;4757;59.334;18.034;2024-03-23T12:32:14;8.30;99.90
9437;DHT22;4757;59.334;18.034;2024-03-23T12:34:40;8.40;99.90
9437;DHT22;4757;59.334;18.034;2024-03-23T12:37:10;8.60;99.90
9437;DHT22;4757;59.334;18.034;2024-03-23T12:39:36;8.70;99.90
9437;DHT22;4757;59.334;18.034;2024-03-23T12:42:03;9.00;99.90
9437;DHT22;4757;59.334;18.034;2024-03-23T12:44:30;9.40;99.90
9437;DHT22;4757;59.334;18.034;2024-03-23T12:46:57;9.10;99.90
9437;DHT22;4757;59.334;18.034;2024-03-23T12:49:24;8.90;99.90
9437;DHT22;4757;59.334;18.034;2024-03-23T12:51:55;8.80;99.90
9437;DHT22;4757;59.334;18.034;2024-03-23T12:54:24;8.70;99.90
9437;DHT22;4757;59.334;18.034;2024-03-23T12:56:52;8.80;99.90
9437;DHT22;4757;59.334;18.034;2024-03-23T12:59:19;9.60;99.90
9437;DHT22;4757;59.334;18.034;2024-03-23T13:01:46;10.80;99.90
9437;DHT22;4757;59.334;18.034;2024-03-23T13:04:16;11.50;99.90
9437;DHT22;4757;59.334;18.034;2024-03-23T13:06:42;11.30;99.90
9437;DHT22;4757;59.334;18.034;2024-03-23T13:09:09;10.60;99.90
9437;DHT22;4757;59.334;18.034;2024-03-23T13:11:36;10.80;99.90
9437;DHT22;4757;59.334;18.034;2024-03-23T13:14:10;10.90;99.90
9437;DHT22;4757;59.334;18.034;2024-03-23T13:16:37;10.60;99.90
9437;DHT22;4757;59.334;18.034;2024-03-23T13:19:04;10.40;99.90
9437;DHT22;4757;59.334;18.034;2024-03-23T13:21:30;11.00;99.90
9437;DHT22;4757;59.334;18.034;2024-03-23T13:23:58;10.40;99.90
9437;DHT22;4757;59.334;18.034;2024-03-23T13:26:24;9.90;99.90
9437;DHT22;4757;59.334;18.034;2024-03-23T13:28:51;9.40;99.90
9437;DHT22;4757;59.334;18.034;2024-03-23T13:31:18;9.00;99.90
9437;DHT22;4757;59.334;18.034;2024-03-23T13:33:45;8.50;99.90
9437;DHT22;4757;59.334;18.034;2024-03-23T13:36:11;8.00;99.90
9437;DHT22;4757;59.334;18.034;2024-03-23T13:38:38;7.50;99.90
9437;DHT22;4757;59.334;18.034;2024-03-23T13:41:04;7.20;99.90
9437;DHT22;4757;59.334;18.034;2024-03-23T13:43:32;7.20;99.90
9437;DHT22;4757;59.334;18.034;2024-03-23T13:45:59;7.50;99.90
9437;DHT22;4757;59.334;18.034;2024-03-23T13:48:26;7.60;99.90
9437;DHT22;4757;59.334;18.034;2024-03-23T13:50:56;7.80;99.90
9437;DHT22;4757;59.334;18.034;2024-03-23T13:53:24;7.70;99.90
9437;DHT22;4757;59.334;18.034;2024-03-23T13:55:50;7.50;99.90
9437;DHT22;4757;59.334;18.034;2024-03-23T13:58:17;7.50;99.90
9437;DHT22;4757;59.334;18.034;2024-03-23T14:00:43;7.30;99.90
9437;DHT22;4757;59.334;18.034;2024-03-23T14:03:10;7.30;99.90
9437;DHT22;4757;59.334;18.034;2024-03-23T14:05:37;7.20;99.90
9437;DHT22;4757;59.334;18.034;2024-03-23T14:08:07;7.10;99.90
9437;DHT22;4757;59.334;18.034;2024-03-23T14:10:34;7.00;99.90
9437;DHT22;4757;59.334;18.034;2024-03-23T14:13:02;6.60;99.90
9437;DHT22;4757;59.334;18.034;2024-03-23T14:15:29;6.40;99.90
9437;DHT22;4757;59.334;18.034;2024-03-23T14:17:58;6.20;99.90
9437;DHT22;4757;59.334;18.034;2024-03-23T14:20:25;6.20;99.90
9437;DHT22;4757;59.334;18.034;2024-03-23T14:22:52;6.20;99.90
9437;DHT22;4757;59.334;18.034;2024-03-23T14:25:18;6.40;99.90
9437;DHT22;4757;59.334;18.034;2024-03-23T14:28:02;6.60;99.90
9437;DHT22;4757;59.334;18.034;2024-03-23T14:30:32;6.60;99.90
9437;DHT22;4757;59.334;18.034;2024-03-23T14:32:59;6.70;99.90
9437;DHT22;4757;59.334;18.034;2024-03-23T14:35:25;6.70;99.90
9437;DHT22;4757;59.334;18.034;2024-03-23T14:37:52;7.00;99.90
9437;DHT22;4757;59.334;18.034;2024-03-23T14:40:19;6.90;99.90
9437;DHT22;4757;59.334;18.034;2024-03-23T14:42:45;6.80;99.90
9437;DHT22;4757;59.334;18.034;2024-03-23T14:45:12;7.00;99.90
9437;DHT22;4757;59.334;18.034;2024-03-23T14:47:38;7.10;99.90
9437;DHT22;4757;59.334;18.034;2024-03-23T14:50:05;7.10;99.90
9437;DHT22;4757;59.334;18.034;2024-03-23T14:52:35;7.00;99.90
9437;DHT22;4757;59.334;18.034;2024-03-23T14:55:01;7.10;99.90
9437;DHT22;4757;59.334;18.034;2024-03-23T14:57:28;7.10;99.90
9437;DHT22;4757;59.334;18.034;2024-03-23T14:59:59;7.10;99.90
9437;DHT22;4757;59.334;18.034;2024-03-23T15:02:25;7.10;99.90
9437;DHT22;4757;59.334;18.034;2024-03-23T15:04:54;7.10;99.90
9437;DHT22;4757;59.334;18.034;2024-03-23T15:07:21;7.20;99.90
9437;DHT22;4757;59.334;18.034;2024-03-23T15:09:48;7.20;99.90
9437;DHT22;4757;59.334;18.034;2024-03-23T15:12:14;7.20;99.90
9437;DHT22;4757;59.334;18.034;2024-03-23T15:14:41;7.20;99.90
9437;DHT22;4757;59.334;18.034;2024-03-23T15:17:10;7.10;99.90
9437;DHT22;4757;59.334;18.034;2024-03-23T15:19:37;7.10;99.90
9437;DHT22;4757;59.334;18.034;2024-03-23T15:22:03;7.10;99.90
9437;DHT22;4757;59.334;18.034;2024-03-23T15:24:30;7.10;99.90
9437;DHT22;4757;59.334;18.034;2024-03-23T15:26:57;7.00;99.90
9437;DHT22;4757;59.334;18.034;2024-03-23T15:29:23;7.00;99.90
9437;DHT22;4757;59.334;18.034;2024-03-23T15:31:50;7.00;99.90
9437;DHT22;4757;59.334;18.034;2024-03-23T15:34:19;7.00;99.90
9437;DHT22;4757;59.334;18.034;2024-03-23T15:36:48;7.00;99.90
9437;DHT22;4757;59.334;18.034;2024-03-23T15:39:16;7.00;99.90
9437;DHT22;4757;59.334;18.034;2024-03-23T15:41:46;7.00;99.90
9437;DHT22;4757;59.334;18.034;2024-03-23T15:44:12;7.00;99.90
9437;DHT22;4757;59.334;18.034;2024-03-23T15:46:39;7.00;99.90
9437;DHT22;4757;59.334;18.034;2024-03-23T15:49:07;7.00;99.90
9437;DHT22;4757;59.334;18.034;2024-03-23T15:51:34;6.50;99.90
9437;DHT22;4757;59.334;18.034;2024-03-23T15:54:12;6.90;99.90
9437;DHT22;4757;59.334;18.034;2024-03-23T15:56:39;8.40;99.90
9437;DHT22;4757;59.334;18.034;2024-03-23T15:59:06;7.00;99.90
9437;DHT22;4757;59.334;18.034;2024-03-23T16:01:33;7.00;99.90
9437;DHT22;4757;59.334;18.034;2024-03-23T16:04:01;6.90;99.90
9437;DHT22;4757;59.334;18.034;2024-03-23T16:06:28;7.00;99.90
9437;DHT22;4757;59.334;18.034;2024-03-23T16:08:54;6.90;99.90
9437;DHT22;4757;59.334;18.034;2024-03-23T16:11:21;6.90;99.90
9437;DHT22;4757;59.334;18.034;2024-03-23T16:13:48;6.80;99.90
9437;DHT22;4757;59.334;18.034;2024-03-23T16:16:14;6.80;99.90
9437;DHT22;4757;59.334;18.034;2024-03-23T16:18:43;6.80;99.90
9437;DHT22;4757;59.334;18.034;2024-03-23T16:21:10;6.80;99.90
9437;DHT22;4757;59.334;18.034;2024-03-23T16:23:37;6.80;99.90
9437;DHT22;4757;59.334;18.034;2024-03-23T16:26:04;6.00;99.90
9437;DHT22;4757;59.334;18.034;2024-03-23T16:28:35;6.80;99.90
9437;DHT22;4757;59.334;18.034;2024-03-23T16:31:03;6.90;99.90
9437;DHT22;4757;59.334;18.034;2024-03-23T16:33:30;6.80;99.90
9437;DHT22;4757;59.334;18.034;2024-03-23T16:35:58;6.80;99.90
9437;DHT22;4757;59.334;18.034;2024-03-23T16:38:28;6.70;99.90
9437;DHT22;4757;59.334;18.034;2024-03-23T16:40:57;6.70;99.90
9437;DHT22;4757;59.334;18.034;2024-03-23T16:43:24;6.70;99.90
9437;DHT22;4757;59.334;18.034;2024-03-23T16:45:59;6.60;99.90
9437;DHT22;4757;59.334;18.034;2024-03-23T16:48:27;6.60;99.90
9437;DHT22;4757;59.334;18.034;2024-03-23T16:50:57;6.60;99.90
9437;DHT22;4757;59.334;18.034;2024-03-23T16:53:28;6.50;99.90
9437;DHT22;4757;59.334;18.034;2024-03-23T16:56:00;6.50;99.90
9437;DHT22;4757;59.334;18.034;2024-03-23T16:58:28;6.40;99.90
9437;DHT22;4757;59.334;18.034;2024-03-23T17:03:34;6.40;99.90
9437;DHT22;4757;59.334;18.034;2024-03-23T17:06:07;6.40;99.90
9437;DHT22;4757;59.334;18.034;2024-03-23T17:08:34;6.30;99.90
9437;DHT22;4757;59.334;18.034;2024-03-23T17:11:02;6.20;99.90
9437;DHT22;4757;59.334;18.034;2024-03-23T17:13:34;6.20;99.90